createdAt,value
2022-08-17T00:00:42.716Z,95691.09
2022-08-17T00:03:11.229Z,95695.13
2022-08-17T00:05:40.114Z,95709.56
2022-08-17T00:08:06.651Z,95713.56
2022-08-17T00:10:35.372Z,95729.16
2022-08-17T00:13:02.060Z,95711.63
2022-08-17T00:15:28.654Z,95728.34
2022-08-17T00:17:55.182Z,95725.81
2022-08-17T00:20:23.451Z,95742.56
2022-08-17T00:22:57.180Z,95737.72
2022-08-17T00:25:23.751Z,95747.44
2022-08-17T00:27:50.326Z,95747.16
2022-08-17T00:30:18.058Z,95746.88
2022-08-17T00:33:14.541Z,95749.50
2022-08-17T00:35:32.110Z,95743.88
2022-08-17T00:37:59.345Z,95742.06
2022-08-17T00:40:25.974Z,95750.38
2022-08-17T00:42:52.517Z,95741.84
2022-08-17T00:45:19.012Z,95736.47
2022-08-17T00:47:46.204Z,95732.44
2022-08-17T00:50:12.712Z,95746.56
2022-08-17T00:52:41.359Z,95735.75
2022-08-17T00:55:08.105Z,95731.69
2022-08-17T00:57:35.200Z,95728.22
2022-08-17T01:00:03.351Z,95724.16
2022-08-17T01:02:30.522Z,95731.78
2022-08-17T01:05:00.994Z,95735.72
2022-08-17T01:07:27.796Z,95741.13
2022-08-17T01:09:54.311Z,95736.66
2022-08-17T01:12:20.818Z,95751.28
2022-08-17T01:14:47.372Z,95750.53
2022-08-17T01:17:14.141Z,95747.91
2022-08-17T01:19:40.656Z,95753.63
2022-08-17T01:22:07.081Z,95747.19
2022-08-17T01:24:33.935Z,95749.41
2022-08-17T01:27:00.800Z,95750.13
2022-08-17T01:29:27.681Z,95746.97
2022-08-17T01:31:54.243Z,95763.63
2022-08-17T01:34:20.954Z,95764.91
2022-08-17T01:36:47.614Z,95763.78
2022-08-17T01:39:14.655Z,95765.00
2022-08-17T01:41:41.485Z,95774.50
2022-08-17T01:44:07.972Z,95772.75
2022-08-17T01:46:34.802Z,95769.19
2022-08-17T01:49:01.457Z,95770.22
2022-08-17T01:51:28.808Z,95775.09
2022-08-17T01:53:55.367Z,95767.97
2022-08-17T01:56:22.093Z,95765.91
2022-08-17T01:58:48.771Z,95753.66
2022-08-17T02:01:15.328Z,95754.81
2022-08-17T02:03:42.133Z,95751.59
2022-08-17T02:06:27.839Z,95750.19
2022-08-17T02:09:01.794Z,95746.22
2022-08-17T02:11:28.664Z,95753.06
2022-08-17T02:14:02.362Z,95749.66
2022-08-17T02:16:37.853Z,95738.53
2022-08-17T02:19:04.734Z,95755.25
2022-08-17T02:21:31.842Z,95764.16
2022-08-17T02:23:59.025Z,95768.81
2022-08-17T02:26:26.440Z,95769.94
2022-08-17T02:28:53.295Z,95782.28
2022-08-17T02:31:20.126Z,95793.69
2022-08-17T02:33:46.694Z,95790.16
2022-08-17T02:36:27.601Z,95785.38
2022-08-17T02:38:54.264Z,95779.19
2022-08-17T02:41:20.844Z,95767.88
2022-08-17T02:43:47.408Z,95767.41
2022-08-17T02:46:13.911Z,95743.31
2022-08-17T02:48:40.826Z,95705.66
2022-08-17T02:51:07.626Z,95691.56
2022-08-17T02:53:35.761Z,95695.31
2022-08-17T02:56:02.869Z,95700.47
2022-08-17T02:58:35.442Z,95692.25
2022-08-17T03:01:03.481Z,95689.19
2022-08-17T03:03:30.001Z,95674.41
2022-08-17T03:05:56.894Z,95679.63
2022-08-17T03:08:24.878Z,95701.38
2022-08-17T03:10:52.306Z,95697.97
2022-08-17T03:13:19.109Z,95694.25
2022-08-17T03:15:45.728Z,95682.84
2022-08-17T03:18:24.243Z,95695.19
2022-08-17T03:20:52.031Z,95679.13
2022-08-17T03:23:18.834Z,95679.25
2022-08-17T03:25:53.024Z,95672.16
2022-08-17T03:28:20.242Z,95669.75
2022-08-17T03:30:46.809Z,95661.28
2022-08-17T03:33:14.156Z,95657.41
2022-08-17T03:35:40.969Z,95641.63
2022-08-17T03:38:07.552Z,95647.59
2022-08-17T03:40:57.059Z,95643.91
2022-08-17T03:43:21.189Z,95630.78
2022-08-17T03:45:47.910Z,95630.78
2022-08-17T03:48:17.225Z,95627.03
2022-08-17T03:50:43.919Z,95624.72
2022-08-17T03:53:10.426Z,95615.44
2022-08-17T03:55:36.986Z,95620.53
2022-08-17T03:58:03.509Z,95622.66
2022-08-17T04:00:30.291Z,95628.00
2022-08-17T04:02:56.830Z,95636.41
2022-08-17T04:05:23.393Z,95636.81
2022-08-17T04:07:50.343Z,95631.75
2022-08-17T04:10:17.218Z,95637.25
2022-08-17T04:12:47.330Z,95650.59
2022-08-17T04:15:13.915Z,95654.59
2022-08-17T04:17:40.426Z,95651.38
2022-08-17T04:20:07.279Z,95660.03
2022-08-17T04:22:34.482Z,95645.03
2022-08-17T04:25:02.437Z,95649.19
2022-08-17T04:27:29.838Z,95646.75
2022-08-17T04:29:56.440Z,95645.63
2022-08-17T04:32:58.586Z,95634.56
2022-08-17T04:35:09.618Z,95635.41
2022-08-17T04:37:36.466Z,95637.09
2022-08-17T04:40:04.874Z,95623.69
2022-08-17T04:42:31.771Z,95632.78
2022-08-17T04:44:58.512Z,95625.38
2022-08-17T04:47:27.525Z,95633.38
2022-08-17T04:49:54.328Z,95650.19
2022-08-17T04:52:32.289Z,95649.09
2022-08-17T04:55:08.113Z,95645.13
2022-08-17T04:57:39.317Z,95658.00
2022-08-17T05:00:08.430Z,95658.63
2022-08-17T05:02:35.356Z,95661.75
2022-08-17T05:05:16.164Z,95656.34
2022-08-17T05:07:43.121Z,95663.28
2022-08-17T05:10:09.645Z,95654.81
2022-08-17T05:12:36.309Z,95655.72
2022-08-17T05:15:05.264Z,95657.28
2022-08-17T05:17:31.823Z,95649.19
2022-08-17T05:19:58.692Z,95659.81
2022-08-17T05:22:25.272Z,95669.94
2022-08-17T05:24:53.989Z,95673.53
2022-08-17T05:27:22.223Z,95675.63
2022-08-17T05:29:50.335Z,95685.25
2022-08-17T05:32:39.220Z,95681.53
2022-08-17T05:35:03.432Z,95692.31
2022-08-17T05:37:29.982Z,95690.69
2022-08-17T05:39:56.544Z,95696.50
2022-08-17T05:42:23.097Z,95705.16
2022-08-17T05:44:49.629Z,95703.16
2022-08-17T05:47:16.934Z,95706.81
2022-08-17T05:49:44.381Z,95719.91
2022-08-17T05:52:19.783Z,95714.44
2022-08-17T05:54:47.525Z,95719.16
2022-08-17T05:57:14.108Z,95729.88
2022-08-17T05:59:40.975Z,95733.75
2022-08-17T06:02:10.124Z,95734.94
2022-08-17T06:04:36.988Z,95734.34
2022-08-17T06:07:03.554Z,95729.19
2022-08-17T06:09:33.805Z,95732.00
2022-08-17T06:12:00.736Z,95733.03
2022-08-17T06:14:28.172Z,95741.25
2022-08-17T06:16:54.820Z,95746.31
2022-08-17T06:19:21.896Z,95756.84
2022-08-17T06:21:48.399Z,95769.16
2022-08-17T06:24:15.003Z,95772.03
2022-08-17T06:26:43.433Z,95774.31
2022-08-17T06:29:10.033Z,95773.69
2022-08-17T06:31:45.763Z,95773.56
2022-08-17T06:34:12.532Z,95770.72
2022-08-17T06:36:39.334Z,95761.38
2022-08-17T06:39:05.904Z,95748.41
2022-08-17T06:41:32.519Z,95752.38
2022-08-17T06:43:59.025Z,95759.56
2022-08-17T06:46:26.087Z,95756.41
2022-08-17T06:48:52.604Z,95751.56
2022-08-17T06:51:19.341Z,95763.75
2022-08-17T06:53:46.066Z,95762.75
2022-08-17T06:56:12.671Z,95774.16
2022-08-17T06:58:40.216Z,95773.56
2022-08-17T07:01:07.234Z,95779.19
2022-08-17T07:03:34.520Z,95777.16
2022-08-17T07:06:02.515Z,95775.19
2022-08-17T07:08:32.062Z,95762.31
2022-08-17T07:11:00.636Z,95778.88
2022-08-17T07:13:27.124Z,95780.91
2022-08-17T07:15:56.959Z,95772.47
2022-08-17T07:18:23.778Z,95775.06
2022-08-17T07:20:51.942Z,95783.66
2022-08-17T07:23:18.622Z,95796.78
2022-08-17T07:25:45.435Z,95800.16
2022-08-17T07:28:12.296Z,95805.41
2022-08-17T07:30:45.677Z,95805.00
2022-08-17T07:33:16.604Z,95796.47
2022-08-17T07:35:43.806Z,95796.16
2022-08-17T07:38:25.941Z,95792.91
2022-08-17T07:40:53.558Z,95795.53
2022-08-17T07:43:22.365Z,95783.78
2022-08-17T07:45:50.241Z,95780.84
2022-08-17T07:48:17.133Z,95774.91
2022-08-17T07:50:49.700Z,95774.47
2022-08-17T07:53:17.667Z,95780.41
2022-08-17T07:55:44.447Z,95783.81
2022-08-17T07:58:13.394Z,95792.59
2022-08-17T08:00:42.314Z,95792.00
2022-08-17T08:03:11.255Z,95790.84
2022-08-17T08:05:50.124Z,95804.31
2022-08-17T08:08:17.782Z,95812.88
2022-08-17T08:10:45.599Z,95812.13
2022-08-17T08:13:14.430Z,95807.59
2022-08-17T08:15:44.990Z,95802.66
2022-08-17T08:18:15.933Z,95795.78
2022-08-17T08:21:02.542Z,95801.06
2022-08-17T08:23:29.143Z,95797.06
2022-08-17T08:25:55.616Z,95791.00
2022-08-17T08:28:23.068Z,95802.34
2022-08-17T08:30:50.439Z,95801.91
2022-08-17T08:33:17.107Z,95806.22
2022-08-17T08:35:43.858Z,95816.44
2022-08-17T08:38:10.446Z,95826.09
2022-08-17T08:40:37.263Z,95812.88
2022-08-17T08:43:03.789Z,95811.63
2022-08-17T08:45:31.122Z,95808.81
2022-08-17T08:47:57.674Z,95804.03
2022-08-17T08:50:37.981Z,95801.75
2022-08-17T08:53:05.110Z,95801.72
2022-08-17T08:55:32.722Z,95800.38
2022-08-17T08:57:59.255Z,95798.75
2022-08-17T09:00:26.081Z,95805.28
2022-08-17T09:02:52.831Z,95806.78
2022-08-17T09:05:19.646Z,95801.47
2022-08-17T09:07:46.427Z,95799.88
2022-08-17T09:10:13.017Z,95796.09
2022-08-17T09:12:42.015Z,95793.25
2022-08-17T09:15:12.873Z,95792.91
2022-08-17T09:17:39.730Z,95782.31
2022-08-17T09:20:06.571Z,95778.75
2022-08-17T09:22:35.286Z,95786.47
2022-08-17T09:25:04.688Z,95791.06
2022-08-17T09:27:31.445Z,95797.28
2022-08-17T09:29:58.265Z,95799.41
2022-08-17T09:32:24.795Z,95808.78
2022-08-17T09:34:51.652Z,95803.03
2022-08-17T09:37:21.369Z,95804.59
2022-08-17T09:39:48.036Z,95796.66
2022-08-17T09:42:14.696Z,95786.75
2022-08-17T09:44:41.464Z,95785.88
2022-08-17T09:47:08.029Z,95787.84
2022-08-17T09:49:34.625Z,95786.81
2022-08-17T09:52:01.271Z,95787.44
2022-08-17T09:54:44.544Z,95790.16
2022-08-17T09:57:29.866Z,95792.91
2022-08-17T09:59:57.095Z,95787.38
2022-08-17T10:02:24.464Z,95794.00
2022-08-17T10:04:51.469Z,95788.63
2022-08-17T10:07:18.268Z,95787.41
2022-08-17T10:09:45.156Z,95787.94
2022-08-17T10:12:12.200Z,95790.88
2022-08-17T10:14:44.711Z,95798.09
2022-08-17T10:17:20.319Z,95789.25
2022-08-17T10:19:48.135Z,95783.84
2022-08-17T10:22:34.721Z,95775.50
2022-08-17T10:25:21.661Z,95779.13
2022-08-17T10:27:48.439Z,95777.34
2022-08-17T10:30:23.546Z,95771.38
2022-08-17T10:32:50.294Z,95765.06
2022-08-17T10:35:16.779Z,95761.78
2022-08-17T10:37:43.929Z,95755.09
2022-08-17T10:40:10.991Z,95759.09
2022-08-17T10:42:37.538Z,95759.81
2022-08-17T10:45:11.346Z,95743.72
2022-08-17T10:47:54.934Z,95740.28
2022-08-17T10:50:22.500Z,95731.78
2022-08-17T10:52:50.246Z,95725.47
2022-08-17T10:55:17.168Z,95730.69
2022-08-17T10:57:43.972Z,95726.38
2022-08-17T11:00:10.830Z,95737.56
2022-08-17T11:02:39.524Z,95733.97
2022-08-17T11:05:13.526Z,95726.72
2022-08-17T11:07:40.227Z,95724.03
2022-08-17T11:10:06.970Z,95718.00
2022-08-17T11:12:33.498Z,95707.22
2022-08-17T11:15:00.040Z,95714.06
2022-08-17T11:17:29.622Z,95713.97
2022-08-17T11:19:56.192Z,95715.06
2022-08-17T11:22:23.035Z,95707.81
2022-08-17T11:24:49.779Z,95711.44
2022-08-17T11:27:20.040Z,95715.94
2022-08-17T11:29:51.998Z,95720.88
2022-08-17T11:32:19.576Z,95722.69
2022-08-17T11:34:48.848Z,95724.16
2022-08-17T11:37:15.694Z,95720.09
2022-08-17T11:39:42.539Z,95720.09
2022-08-17T11:42:09.160Z,95711.66
2022-08-17T11:44:35.725Z,95720.34
2022-08-17T11:47:02.356Z,95714.75
2022-08-17T11:49:28.868Z,95705.31
2022-08-17T11:51:55.599Z,95693.22
2022-08-17T11:54:32.758Z,95691.72
2022-08-17T11:57:00.537Z,95686.47
2022-08-17T11:59:27.813Z,95688.66
2022-08-17T12:01:54.311Z,95689.00
2022-08-17T12:04:20.903Z,95679.63
2022-08-17T12:06:47.516Z,95681.81
2022-08-17T12:09:14.383Z,95673.78
2022-08-17T12:11:58.789Z,95673.81
2022-08-17T12:14:45.417Z,95665.38
2022-08-17T12:17:22.452Z,95666.81
2022-08-17T12:20:01.384Z,95652.75
2022-08-17T12:22:31.332Z,95641.16
2022-08-17T12:24:58.089Z,95641.88
2022-08-17T12:28:04.189Z,95659.75
2022-08-17T12:30:14.334Z,95665.56
2022-08-17T12:32:40.954Z,95657.06
2022-08-17T12:35:07.470Z,95657.72
2022-08-17T12:37:35.304Z,95647.00
2022-08-17T12:40:01.889Z,95638.44
2022-08-17T12:42:28.656Z,95643.78
2022-08-17T12:44:55.421Z,95637.88
2022-08-17T12:47:23.125Z,95629.47
2022-08-17T12:49:50.793Z,95625.22
2022-08-17T12:52:17.349Z,95628.28
2022-08-17T12:54:44.220Z,95620.91
2022-08-17T12:57:10.834Z,95609.16
2022-08-17T12:59:37.684Z,95594.09
2022-08-17T13:02:04.773Z,95597.06
2022-08-17T13:04:31.710Z,95584.66
2022-08-17T13:07:00.274Z,95584.00
2022-08-17T13:09:33.578Z,95576.78
2022-08-17T13:12:07.686Z,95565.00
2022-08-17T13:14:34.741Z,95568.78
2022-08-17T13:17:01.190Z,95573.25
2022-08-17T13:19:40.296Z,95558.91
2022-08-17T13:22:08.640Z,95559.84
2022-08-17T13:24:38.217Z,95565.19
2022-08-17T13:27:12.688Z,95563.09
2022-08-17T13:29:39.255Z,95559.66
2022-08-17T13:32:13.462Z,95560.53
2022-08-17T13:35:12.921Z,95543.94
2022-08-17T13:37:29.137Z,95540.50
2022-08-17T13:39:55.973Z,95545.09
2022-08-17T13:42:23.589Z,95543.94
2022-08-17T13:44:51.143Z,95551.59
2022-08-17T13:47:17.773Z,95543.78
2022-08-17T13:49:48.925Z,95554.38
2022-08-17T13:52:16.220Z,95560.78
2022-08-17T13:54:47.193Z,95573.44
2022-08-17T13:57:14.048Z,95573.19
2022-08-17T13:59:53.857Z,95569.47
2022-08-17T14:02:22.072Z,95559.72
2022-08-17T14:04:48.885Z,95572.13
2022-08-17T14:07:17.690Z,95558.00
2022-08-17T14:09:44.193Z,95563.91
2022-08-17T14:12:11.044Z,95559.28
2022-08-17T14:14:38.703Z,95548.91
2022-08-17T14:17:08.004Z,95556.06
2022-08-17T14:19:35.045Z,95553.28
2022-08-17T14:22:04.009Z,95553.88
2022-08-17T14:24:30.617Z,95540.88
2022-08-17T14:26:59.512Z,95545.00
2022-08-17T14:29:26.330Z,95541.63
2022-08-17T14:31:54.292Z,95539.44
2022-08-17T14:34:23.436Z,95525.25
2022-08-17T14:36:50.028Z,95541.38
2022-08-17T14:39:18.378Z,95539.31
2022-08-17T14:41:47.899Z,95530.34
2022-08-17T14:44:16.823Z,95527.09
2022-08-17T14:46:43.459Z,95525.25
2022-08-17T14:49:10.093Z,95528.59
2022-08-17T14:51:37.303Z,95530.91
2022-08-17T14:54:25.596Z,95530.00
2022-08-17T14:57:32.937Z,95520.69
2022-08-17T14:59:46.830Z,95518.63
2022-08-17T15:02:13.343Z,95497.63
2022-08-17T15:04:45.411Z,95508.28
2022-08-17T15:07:19.419Z,95496.81
2022-08-17T15:09:49.070Z,95494.22
2022-08-17T15:12:16.104Z,95486.25
2022-08-17T15:14:44.903Z,95505.19
2022-08-17T15:17:11.796Z,95503.00
2022-08-17T15:19:38.736Z,95492.00
2022-08-17T15:22:05.473Z,95494.13
2022-08-17T15:24:34.164Z,95484.88
2022-08-17T15:27:01.160Z,95469.50
2022-08-17T15:29:28.762Z,95468.72
2022-08-17T15:32:00.474Z,95482.94
2022-08-17T15:34:29.014Z,95472.63
2022-08-17T15:36:55.759Z,95464.75
2022-08-17T15:39:24.391Z,95459.84
2022-08-17T15:41:57.944Z,95459.16
2022-08-17T15:44:34.876Z,95449.25
2022-08-17T15:47:01.691Z,95448.38
2022-08-17T15:49:28.726Z,95446.94
2022-08-17T15:51:56.300Z,95436.31
2022-08-17T15:54:23.467Z,95432.91
2022-08-17T15:56:50.116Z,95416.34
2022-08-17T15:59:18.020Z,95403.66
2022-08-17T16:03:14.277Z,95389.00
2022-08-17T16:04:32.178Z,95387.75
2022-08-17T16:06:59.173Z,95422.63
2022-08-17T16:09:28.885Z,95438.66
2022-08-17T16:11:56.296Z,95446.66
2022-08-17T16:14:24.073Z,95463.63
2022-08-17T16:16:51.170Z,95475.88
2022-08-17T16:19:18.319Z,95470.28
2022-08-17T16:21:46.155Z,95466.69
2022-08-17T16:24:14.811Z,95464.69
2022-08-17T16:26:41.869Z,95490.09
2022-08-17T16:29:08.522Z,95555.72
2022-08-17T16:31:35.443Z,95629.53
2022-08-17T16:34:17.208Z,95654.31
2022-08-17T16:36:54.819Z,95711.34
2022-08-17T16:39:23.134Z,95744.25
2022-08-17T16:41:51.767Z,95809.84
2022-08-17T16:44:20.505Z,95824.19
2022-08-17T16:46:47.795Z,95873.41
2022-08-17T16:49:36.238Z,95853.69
2022-08-17T16:52:01.393Z,95860.97
2022-08-17T16:54:27.904Z,95903.94
2022-08-17T16:56:54.718Z,95926.34
2022-08-17T16:59:31.337Z,95906.13
2022-08-17T17:02:08.370Z,95916.09
2022-08-17T17:04:35.433Z,95923.91
2022-08-17T17:07:02.028Z,95906.63
2022-08-17T17:09:28.556Z,95888.22
2022-08-17T17:11:55.131Z,95901.56
2022-08-17T17:14:22.700Z,95909.41
2022-08-17T17:16:49.283Z,95933.75
2022-08-17T17:19:15.759Z,95931.66
2022-08-17T17:21:46.085Z,95942.81
2022-08-17T17:24:12.682Z,95949.72
2022-08-17T17:26:40.011Z,95962.09
2022-08-17T17:29:06.811Z,95976.31
2022-08-17T17:31:34.637Z,95977.06
2022-08-17T17:34:01.406Z,95981.16
2022-08-17T17:36:37.705Z,95988.34
2022-08-17T17:39:04.155Z,95985.13
2022-08-17T17:41:30.661Z,95979.47
2022-08-17T17:43:57.205Z,95988.00
2022-08-17T17:46:29.513Z,95990.41
2022-08-17T17:48:56.305Z,96003.50
2022-08-17T17:51:55.037Z,96019.22
2022-08-17T17:54:10.146Z,96022.56
2022-08-17T17:56:43.271Z,96027.16
2022-08-17T17:59:12.783Z,96029.25
2022-08-17T18:01:39.912Z,96039.88
2022-08-17T18:04:17.066Z,96045.66
2022-08-17T18:06:47.701Z,96051.84
2022-08-17T18:09:18.037Z,96053.13
2022-08-17T18:11:46.423Z,96056.59
2022-08-17T18:14:18.362Z,96052.13
2022-08-17T18:16:44.985Z,96051.47
2022-08-17T18:19:11.567Z,96040.34
2022-08-17T18:21:38.396Z,96045.44
2022-08-17T18:24:04.954Z,96045.81
2022-08-17T18:26:32.119Z,96052.44
2022-08-17T18:28:58.860Z,96070.84
2022-08-17T18:31:25.883Z,96074.13
2022-08-17T18:33:53.153Z,96069.38
2022-08-17T18:36:22.195Z,96051.75
2022-08-17T18:38:49.261Z,96051.28
2022-08-17T18:41:16.084Z,96048.13
2022-08-17T18:43:52.954Z,96057.47
2022-08-17T18:46:29.014Z,96079.34
2022-08-17T18:48:56.118Z,96094.88
2022-08-17T18:51:39.827Z,96112.88
2022-08-17T18:54:09.137Z,96106.38
2022-08-17T18:56:36.709Z,96091.97
2022-08-17T18:59:03.281Z,96094.47
2022-08-17T19:01:41.930Z,96099.59
2022-08-17T19:04:16.557Z,96114.69
2022-08-17T19:06:50.556Z,96115.94
2022-08-17T19:09:17.409Z,96110.47
2022-08-17T19:11:44.267Z,96102.00
2022-08-17T19:14:11.148Z,96105.84
2022-08-17T19:16:37.607Z,96111.19
2022-08-17T19:19:04.286Z,96114.63
2022-08-17T19:21:31.126Z,96108.03
2022-08-17T19:23:57.910Z,96106.25
2022-08-17T19:26:53.608Z,96096.03
2022-08-17T19:29:12.058Z,96102.53
2022-08-17T19:31:38.649Z,96092.34
2022-08-17T19:34:05.494Z,96098.44
2022-08-17T19:36:32.321Z,96101.53
2022-08-17T19:38:58.841Z,96107.78
2022-08-17T19:41:25.885Z,96122.56
2022-08-17T19:43:53.009Z,96126.63
2022-08-17T19:46:19.576Z,96130.78
2022-08-17T19:48:48.371Z,96133.22
2022-08-17T19:51:15.117Z,96121.53
2022-08-17T19:54:03.971Z,96114.94
2022-08-17T19:56:28.400Z,96122.25
2022-08-17T19:58:54.941Z,96131.84
2022-08-17T20:01:22.431Z,96134.06
2022-08-17T20:03:49.143Z,96123.47
2022-08-17T20:06:15.645Z,96118.59
2022-08-17T20:08:42.370Z,96104.22
2022-08-17T20:11:08.930Z,96099.84
2022-08-17T20:13:35.690Z,96090.56
2022-08-17T20:16:10.069Z,96086.19
2022-08-17T20:18:36.960Z,96080.03
2022-08-17T20:21:03.783Z,96084.16
2022-08-17T20:23:30.337Z,96073.41
2022-08-17T20:25:58.978Z,96073.06
2022-08-17T20:28:25.925Z,96065.56
2022-08-17T20:30:52.500Z,96064.88
2022-08-17T20:33:19.024Z,96065.91
2022-08-17T20:35:45.988Z,96075.66
2022-08-17T20:38:13.235Z,96073.38
2022-08-17T20:40:40.536Z,96074.41
2022-08-17T20:43:07.355Z,96068.50
2022-08-17T20:45:33.855Z,96058.84
2022-08-17T20:48:33.299Z,96052.31
2022-08-17T20:50:47.847Z,96035.47
2022-08-17T20:53:16.897Z,96027.94
2022-08-17T20:55:52.233Z,96024.28
2022-08-17T20:58:19.437Z,96031.81
2022-08-17T21:00:46.194Z,96039.81
2022-08-17T21:03:13.143Z,96034.16
2022-08-17T21:05:40.433Z,96045.50
2022-08-17T21:08:07.268Z,96029.53
2022-08-17T21:10:34.247Z,96037.28
2022-08-17T21:13:00.880Z,96040.84
2022-08-17T21:15:29.369Z,96039.00
2022-08-17T21:17:56.378Z,96040.19
2022-08-17T21:20:23.064Z,96036.50
2022-08-17T21:22:49.878Z,96033.63
2022-08-17T21:25:17.168Z,96024.22
2022-08-17T21:27:43.975Z,96022.25
2022-08-17T21:30:13.536Z,96020.72
2022-08-17T21:32:42.109Z,96027.25
2022-08-17T21:35:08.757Z,96019.41
2022-08-17T21:37:35.618Z,96013.47
2022-08-17T21:40:02.281Z,96017.56
2022-08-17T21:42:29.208Z,95999.09
2022-08-17T21:44:56.463Z,96009.66
2022-08-17T21:47:23.010Z,96002.00
2022-08-17T21:49:50.285Z,95982.06
2022-08-17T21:52:16.817Z,95961.16
2022-08-17T21:54:46.300Z,95933.91
2022-08-17T21:57:12.772Z,95920.00
2022-08-17T21:59:39.834Z,95916.13
2022-08-17T22:02:08.838Z,95954.88
2022-08-17T22:04:35.558Z,95981.31
2022-08-17T22:07:02.414Z,96015.34
2022-08-17T22:09:29.741Z,96017.19
2022-08-17T22:11:58.445Z,96021.47
2022-08-17T22:14:25.236Z,96023.16
2022-08-17T22:16:52.037Z,96028.50
2022-08-17T22:19:18.718Z,96020.38
2022-08-17T22:21:45.224Z,96017.28
2022-08-17T22:24:12.019Z,96015.75
2022-08-17T22:26:38.523Z,96019.13
2022-08-17T22:29:06.232Z,96021.97
2022-08-17T22:31:35.263Z,96012.03
2022-08-17T22:34:01.779Z,96015.91
2022-08-17T22:36:29.073Z,96010.91
2022-08-17T22:38:56.490Z,96004.00
2022-08-17T22:41:23.303Z,96007.94
2022-08-17T22:43:50.069Z,96002.09
2022-08-17T22:46:18.542Z,95997.19
2022-08-17T22:48:45.210Z,95999.63
2022-08-17T22:51:12.540Z,95989.56
2022-08-17T22:53:39.700Z,95988.69
2022-08-17T22:56:06.244Z,95993.69
2022-08-17T22:58:35.630Z,95998.22
2022-08-17T23:01:02.637Z,95990.38
2022-08-17T23:03:29.154Z,95999.69
2022-08-17T23:05:55.702Z,95998.00
2022-08-17T23:08:24.819Z,96008.16
2022-08-17T23:10:51.491Z,96003.06
2022-08-17T23:13:18.305Z,96006.25
2022-08-17T23:15:47.121Z,96006.28
2022-08-17T23:18:13.885Z,96018.19
2022-08-17T23:20:42.691Z,96015.25
2022-08-17T23:23:09.716Z,96018.59
2022-08-17T23:25:36.571Z,96017.22
2022-08-17T23:28:04.132Z,96021.59
2022-08-17T23:30:30.992Z,96021.88
2022-08-17T23:32:57.967Z,96025.50
2022-08-17T23:35:40.278Z,96020.13
2022-08-17T23:38:15.090Z,96012.59
2022-08-17T23:40:41.921Z,96010.38
2022-08-17T23:43:17.612Z,96004.31
2022-08-17T23:45:52.081Z,96002.13
2022-08-17T23:48:35.268Z,96001.81
2022-08-17T23:51:04.109Z,96000.66
2022-08-17T23:53:31.476Z,96001.59
2022-08-17T23:56:06.947Z,95999.69
2022-08-17T23:58:36.868Z,96008.94
